Yvonne K. — PBLX — position and weather

sailwx.info

Track history (hours):
 
Tides and Currents Weather Stations Pressure Air Temp Water Temp Dewpoint Dewpoint Depression Visibility Wind Speed Wind Dir Waves Ship Positions

Yvonne K.

Last reported at 2015-May-22 20:33 UTC. Time now 2015-May-24 11:23 UTC.
Position N 48°00' W 005°14'.

Length 90 m; draft 5.4 m.

Type: Cargo ship. MMSI: 244948000.

Date/timePositionNaut miles runAvg speedWind from/ knotsBaromVisibWave heightAir tempDewpointWater temp
2015-May-22 20:33N 48°00' W 005°14'9 8.6
2015-May-22 19:33N 48°08' W 005°07'8 8.2
2015-May-22 18:33N 48°14' W 004°59'9 8.6
2015-May-22 17:34N 48°17' W 004°47'8 8.4
2015-May-22 16:33N 48°20' W 004°35'6 5.8
2015-May-22 15:32N 48°23' W 004°27'0 0.0
2015-May-22 14:32N 48°23' W 004°27'0 0.0
2015-May-22 13:32N 48°23' W 004°27'0 0.0
2015-May-22 12:32N 48°23' W 004°27'0 0.0
2015-May-22 11:32N 48°23' W 004°27'0 0.0
2015-May-22 10:32N 48°23' W 004°27'0 0.0
2015-May-22 09:32N 48°23' W 004°27'0 0.0
2015-May-22 08:32N 48°23' W 004°27'0 0.0
2015-May-22 07:32N 48°23' W 004°27'0 0.0
2015-May-22 06:32N 48°23' W 004°27'0 0.0
2015-May-22 05:32N 48°23' W 004°27'0 0.0
2015-May-22 04:32N 48°23' W 004°27'0 0.0
2015-May-22 03:32N 48°23' W 004°27'0 0.0
2015-May-22 02:32N 48°23' W 004°27'0 0.0
2015-May-22 01:32N 48°23' W 004°27'0 0.0
2015-May-22 00:32N 48°23' W 004°27'0 0.0
2015-May-21 23:32N 48°23' W 004°27'0 0.0
2015-May-21 22:32N 48°23' W 004°27'0 0.0
2015-May-21 21:32N 48°23' W 004°27'0 0.0
2015-May-21 20:32N 48°23' W 004°27'0 0.0
2015-May-21 19:32N 48°23' W 004°27'0 0.0
2015-May-21 18:32N 48°23' W 004°27'0 0.0
2015-May-21 17:32N 48°23' W 004°27'0 0.0
2015-May-21 16:32N 48°23' W 004°27'0 0.0
2015-May-21 15:32N 48°23' W 004°27'0 0.0
2015-May-21 14:32N 48°23' W 004°27'4 4.1
2015-May-21 13:33N 48°21' W 004°32'1010.3
2015-May-21 12:33N 48°17' W 004°46'9 9.5
2015-May-21 11:33N 48°15' W 005°00'1211.5
2015-May-21 10:33N 48°22' W 005°14'1111.0
2015-May-21 09:33N 48°30' W 005°25'34 8.5
2015-May-21 05:33N 48°46' W 004°40'  
2015-May-18 02:10N 48°52' W 002°36'7 7.6
2015-May-18 01:16N 48°55' W 002°45'5 6.5
2015-May-18 00:30N 48°57' W 002°52'6 6.3
2015-May-17 23:30N 48°58' W 003°01'57 7.2
2015-May-17 15:33N 48°49' W 004°27'2211.1
2015-May-17 13:33N 48°42' W 004°59'1010.1
2015-May-17 12:33N 48°38' W 005°14'10 9.6
2015-May-17 11:33N 48°31' W 005°23'16 7.9
2015-May-17 09:33N 48°17' W 005°36'14 7.0
2015-May-17 07:33N 48°05' W 005°46'7 7.2
2015-May-17 06:33N 47°59' W 005°51'7 7.5
2015-May-17 05:33N 47°53' W 005°57'8 8.0
2015-May-17 04:33N 47°46' W 006°03'  
2015-May-14 07:33N 39°22' W 009°49'9 8.0
2015-May-14 06:26N 39°13' W 009°50'16 8.1
2015-May-14 04:30N 38°57' W 009°50'10 8.1
2015-May-14 03:18N 38°48' W 009°50'6 8.0
2015-May-14 02:32N 38°41' W 009°50'8 8.5
2015-May-14 01:33N 38°33' W 009°47'9 8.3
2015-May-14 00:31N 38°25' W 009°45'8 8.1
2015-May-13 23:33N 38°17' W 009°42'8 8.0
2015-May-13 22:33N 38°10' W 009°40'8 7.8
2015-May-13 21:33N 38°02' W 009°38'8 7.9
2015-May-13 20:33N 37°54' W 009°36'8 8.1
2015-May-13 19:33N 37°46' W 009°33'8 8.2
2015-May-13 18:33N 37°38' W 009°31'9 8.6
2015-May-13 17:33N 37°30' W 009°29'8 8.3
2015-May-13 16:34N 37°22' W 009°26'9 8.5
2015-May-13 15:33N 37°14' W 009°24'9 8.6
2015-May-13 14:33N 37°05' W 009°22'9 8.5
2015-May-13 13:33N 36°57' W 009°19'8 8.5
2015-May-13 12:33N 36°50' W 009°14'9 8.7
2015-May-13 11:33N 36°45' W 009°05'19 9.0
2015-May-13 09:28N 36°39' W 008°42'8 9.1
2015-May-13 08:33N 36°37' W 008°33'9 8.9
2015-May-13 07:33N 36°34' W 008°22'9 8.9
2015-May-13 06:33N 36°32' W 008°11'12 9.2
2015-May-13 05:15N 36°28' W 007°57'6 9.1
2015-May-13 04:33N 36°26' W 007°50'9 9.3
2015-May-13 03:34N 36°24' W 007°39'9 9.4
2015-May-13 02:33N 36°21' W 007°27'10 9.2
2015-May-13 01:30N 36°18' W 007°16'9 9.2
2015-May-13 00:29N 36°15' W 007°05'9 8.9
2015-May-12 23:32N 36°13' W 006°55'  
Track history (hours):
 
Tides and Currents Weather Stations Pressure Air Temp Water Temp Dewpoint Dewpoint Depression Visibility Wind Speed Wind Dir Waves Ship Positions

Yvonne K.

Last reported at 2015-May-22 20:33 UTC. Time now 2015-May-24 11:23 UTC.
Position N 48°00' W 005°14'.

Length 90 m; draft 5.4 m.

Type: Cargo ship. MMSI: 244948000.

Date/timePositionNaut miles runAvg speedWind from/ knotsBaromVisibWave heightAir tempDewpointWater temp
2015-May-22 20:33N 48°00' W 005°14'9 8.6
2015-May-22 19:33N 48°08' W 005°07'8 8.2
2015-May-22 18:33N 48°14' W 004°59'9 8.6
2015-May-22 17:34N 48°17' W 004°47'8 8.4
2015-May-22 16:33N 48°20' W 004°35'6 5.8
2015-May-22 15:32N 48°23' W 004°27'0 0.0
2015-May-22 14:32N 48°23' W 004°27'0 0.0
2015-May-22 13:32N 48°23' W 004°27'0 0.0
2015-May-22 12:32N 48°23' W 004°27'0 0.0
2015-May-22 11:32N 48°23' W 004°27'0 0.0
2015-May-22 10:32N 48°23' W 004°27'0 0.0
2015-May-22 09:32N 48°23' W 004°27'0 0.0
2015-May-22 08:32N 48°23' W 004°27'0 0.0
2015-May-22 07:32N 48°23' W 004°27'0 0.0
2015-May-22 06:32N 48°23' W 004°27'0 0.0
2015-May-22 05:32N 48°23' W 004°27'0 0.0
2015-May-22 04:32N 48°23' W 004°27'0 0.0
2015-May-22 03:32N 48°23' W 004°27'0 0.0
2015-May-22 02:32N 48°23' W 004°27'0 0.0
2015-May-22 01:32N 48°23' W 004°27'0 0.0
2015-May-22 00:32N 48°23' W 004°27'0 0.0
2015-May-21 23:32N 48°23' W 004°27'0 0.0
2015-May-21 22:32N 48°23' W 004°27'0 0.0
2015-May-21 21:32N 48°23' W 004°27'0 0.0
2015-May-21 20:32N 48°23' W 004°27'0 0.0
2015-May-21 19:32N 48°23' W 004°27'0 0.0
2015-May-21 18:32N 48°23' W 004°27'0 0.0
2015-May-21 17:32N 48°23' W 004°27'0 0.0
2015-May-21 16:32N 48°23' W 004°27'0 0.0
2015-May-21 15:32N 48°23' W 004°27'0 0.0
2015-May-21 14:32N 48°23' W 004°27'4 4.1
2015-May-21 13:33N 48°21' W 004°32'1010.3
2015-May-21 12:33N 48°17' W 004°46'9 9.5
2015-May-21 11:33N 48°15' W 005°00'1211.5
2015-May-21 10:33N 48°22' W 005°14'1111.0
2015-May-21 09:33N 48°30' W 005°25'34 8.5
2015-May-21 05:33N 48°46' W 004°40'  
2015-May-18 02:10N 48°52' W 002°36'7 7.6
2015-May-18 01:16N 48°55' W 002°45'5 6.5
2015-May-18 00:30N 48°57' W 002°52'6 6.3
2015-May-17 23:30N 48°58' W 003°01'57 7.2
2015-May-17 15:33N 48°49' W 004°27'2211.1
2015-May-17 13:33N 48°42' W 004°59'1010.1
2015-May-17 12:33N 48°38' W 005°14'10 9.6
2015-May-17 11:33N 48°31' W 005°23'16 7.9
2015-May-17 09:33N 48°17' W 005°36'14 7.0
2015-May-17 07:33N 48°05' W 005°46'7 7.2
2015-May-17 06:33N 47°59' W 005°51'7 7.5
2015-May-17 05:33N 47°53' W 005°57'8 8.0
2015-May-17 04:33N 47°46' W 006°03'  
2015-May-14 07:33N 39°22' W 009°49'9 8.0
2015-May-14 06:26N 39°13' W 009°50'16 8.1
2015-May-14 04:30N 38°57' W 009°50'10 8.1
2015-May-14 03:18N 38°48' W 009°50'6 8.0
2015-May-14 02:32N 38°41' W 009°50'8 8.5
2015-May-14 01:33N 38°33' W 009°47'9 8.3
2015-May-14 00:31N 38°25' W 009°45'8 8.1
2015-May-13 23:33N 38°17' W 009°42'8 8.0
2015-May-13 22:33N 38°10' W 009°40'8 7.8
2015-May-13 21:33N 38°02' W 009°38'8 7.9
2015-May-13 20:33N 37°54' W 009°36'8 8.1
2015-May-13 19:33N 37°46' W 009°33'8 8.2
2015-May-13 18:33N 37°38' W 009°31'9 8.6
2015-May-13 17:33N 37°30' W 009°29'8 8.3
2015-May-13 16:34N 37°22' W 009°26'9 8.5
2015-May-13 15:33N 37°14' W 009°24'9 8.6
2015-May-13 14:33N 37°05' W 009°22'9 8.5
2015-May-13 13:33N 36°57' W 009°19'8 8.5
2015-May-13 12:33N 36°50' W 009°14'9 8.7
2015-May-13 11:33N 36°45' W 009°05'19 9.0
2015-May-13 09:28N 36°39' W 008°42'8 9.1
2015-May-13 08:33N 36°37' W 008°33'9 8.9
2015-May-13 07:33N 36°34' W 008°22'9 8.9
2015-May-13 06:33N 36°32' W 008°11'12 9.2
2015-May-13 05:15N 36°28' W 007°57'6 9.1
2015-May-13 04:33N 36°26' W 007°50'9 9.3
2015-May-13 03:34N 36°24' W 007°39'9 9.4
2015-May-13 02:33N 36°21' W 007°27'10 9.2
2015-May-13 01:30N 36°18' W 007°16'9 9.2
2015-May-13 00:29N 36°15' W 007°05'9 8.9
2015-May-12 23:32N 36°13' W 006°55'  

Dump ship's entire track history